Time;durP1;ratioP1;P1;durP2;ratioP2;P2;SDS_P1;SDS_P2;PMS_P1;PMS_P2;Temp;Humidity;BMP_temperature;BMP_pressure;BME280_temperature;BME280_humidity;BME280_pressure;Samples;Min_cycle;Max_cycle;Signal;HPM_P1;HPM_P2
2021/03/20 00:01:48;;;;;;;;;53.25;41.00;;;;;-2.18;93.41;99949.16;5014853;28;8912;-56
2021/03/20 00:04:16;;;;;;;;;63.50;46.25;;;;;-2.16;92.72;99946.50;5016434;28;8858;-57
2021/03/20 00:06:51;;;;;;;;;57.00;40.00;;;;;-2.19;93.26;99951.81;5015069;28;8878;-56
2021/03/20 00:09:23;;;;;;;;;61.25;44.00;;;;;-2.41;93.28;99945.78;4999471;28;8831;-57
2021/03/20 00:11:50;;;;;;;;;58.25;44.50;;;;;-2.52;94.02;99943.22;5014165;28;9610;-57
2021/03/20 00:14:21;;;;;;;;;51.50;40.00;;;;;-2.14;93.87;99945.63;5015121;28;8835;-57
2021/03/20 00:16:48;;;;;;;;;73.75;51.50;;;;;-2.36;93.89;99942.25;5013921;28;8905;-57
2021/03/20 00:19:16;;;;;;;;;63.25;45.25;;;;;-2.35;93.88;99945.75;5009574;28;8835;-57
2021/03/20 00:21:43;;;;;;;;;62.25;49.50;;;;;-2.59;94.33;99944.97;4997235;28;8857;-57
2021/03/20 00:24:10;;;;;;;;;73.00;51.50;;;;;-2.74;95.04;99943.31;4994697;28;8933;-57
2021/03/20 00:26:37;;;;;;;;;79.75;54.25;;;;;-2.61;94.92;99953.75;5012221;28;8851;-58
2021/03/20 00:29:07;;;;;;;;;83.25;60.50;;;;;-2.50;94.68;99947.59;5015573;28;8831;-56
2021/03/20 00:31:34;;;;;;;;;80.25;60.50;;;;;-2.59;95.43;99949.38;5014348;28;8838;-58
2021/03/20 00:34:01;;;;;;;;;80.75;56.50;;;;;-2.58;94.33;99953.72;5008306;28;8822;-56
2021/03/20 00:36:29;;;;;;;;;75.00;53.50;;;;;-2.67;94.60;99952.03;5015814;28;8828;-57
2021/03/20 00:39:08;;;;;;;;;77.50;57.50;;;;;-2.50;94.80;99942.31;5013050;28;8839;-57
2021/03/20 00:41:36;;;;;;;;;77.25;54.00;;;;;-2.59;95.01;99952.88;5014370;28;9001;-55
2021/03/20 00:44:04;;;;;;;;;73.50;52.25;;;;;-2.03;93.04;99946.47;5014642;28;8839;-55
2021/03/20 00:46:31;;;;;;;;;74.00;57.00;;;;;-2.24;92.41;99951.81;5008090;28;8850;-56
2021/03/20 00:48:59;;;;;;;;;69.75;55.75;;;;;-2.66;92.87;99952.03;5014319;28;8846;-57
2021/03/20 00:51:26;;;;;;;;;86.00;57.25;;;;;-2.70;93.91;99949.41;5014724;28;8827;-57
2021/03/20 00:53:53;;;;;;;;;89.50;63.00;;;;;-2.31;92.66;99950.13;5015186;28;8855;-56
2021/03/20 00:56:20;;;;;;;;;86.25;60.00;;;;;-3.17;93.03;99953.91;5014797;28;8854;-53
2021/03/20 00:58:47;;;;;;;;;84.25;58.75;;;;;-2.92;92.96;99949.47;5015590;28;8823;-55
2021/03/20 01:01:19;;;;;;;;;66.00;35.50;;;;;-3.01;93.94;99954.75;5014164;28;9544;-57
2021/03/20 01:03:47;;;;;;;;;83.75;60.00;;;;;-2.79;93.94;99954.69;5015340;28;8823;-55
2021/03/20 01:06:25;;;;;;;;;85.50;58.50;;;;;-2.66;93.06;99951.13;5015056;28;8862;-56
2021/03/20 01:08:54;;;;;;;;;60.00;39.00;;;;;-2.51;93.64;99955.47;5015026;28;8847;-56
2021/03/20 01:11:22;;;;;;;;;79.00;56.25;;;;;-2.52;93.71;99948.47;5012872;28;8839;-56
2021/03/20 01:13:49;;;;;;;;;73.50;54.75;;;;;-2.72;94.04;99952.03;5014120;28;8871;-56
2021/03/20 01:16:16;;;;;;;;;68.50;50.75;;;;;-2.93;94.44;99955.59;5014787;28;9573;-57
2021/03/20 01:18:44;;;;;;;;;72.75;52.00;;;;;-2.70;95.21;99949.41;5014145;28;8819;-55
2021/03/20 01:21:12;;;;;;;;;74.25;50.25;;;;;-2.75;95.07;99951.19;5012499;28;8873;-55
2021/03/20 01:23:39;;;;;;;;;72.50;53.75;;;;;-2.62;94.06;99950.25;5014002;28;8843;-57
2021/03/20 01:26:07;;;;;;;;;82.00;58.00;;;;;-2.46;93.24;99949.28;5014784;28;8850;-54
2021/03/20 01:28:37;;;;;;;;;77.50;57.50;;;;;-2.88;93.06;99956.47;5009901;28;8835;-56
2021/03/20 01:31:05;;;;;;;;;63.75;52.25;;;;;-3.25;93.81;99960.91;5012511;28;8847;-56
2021/03/20 01:33:32;;;;;;;;;62.00;49.50;;;;;-3.18;93.02;99961.81;5012266;28;8874;-57
2021/03/20 01:36:00;;;;;;;;;77.50;52.00;;;;;-2.96;92.85;99954.75;5003902;28;8839;-57
2021/03/20 01:38:27;;;;;;;;;47.50;35.75;;;;;-2.90;92.01;99966.13;5014630;28;8867;-56
2021/03/20 01:41:22;;;;;;;;;65.50;45.25;;;;;-2.74;92.87;99966.06;5011348;28;8823;-55
2021/03/20 01:43:50;;;;;;;;;57.00;42.25;;;;;-2.84;92.42;99969.59;5013922;28;8827;-55
2021/03/20 01:46:41;;;;;;;;;56.00;45.00;;;;;-2.78;93.56;99970.47;5005149;28;8851;-56
2021/03/20 01:49:31;;;;;;;;;56.25;45.00;;;;;-2.90;92.95;99963.50;5013871;28;8835;-57
2021/03/20 01:52:13;;;;;;;;;60.00;33.75;;;;;-3.27;94.20;99970.53;5012060;28;8926;-56
2021/03/20 01:55:18;;;;;;;;;60.75;45.75;;;;;-3.35;94.21;99973.16;5013406;28;8846;-57
2021/03/20 01:57:50;;;;;;;;;72.50;48.00;;;;;-3.82;94.75;99973.16;5004359;28;8863;-55
2021/03/20 02:00:44;;;;;;;;;55.00;39.50;;;;;-3.63;94.62;99964.44;5012009;28;8843;-57
2021/03/20 02:03:20;;;;;;;;;57.50;43.25;;;;;-3.72;93.95;99968.81;5012961;28;8858;-56
2021/03/20 02:05:47;;;;;;;;;63.50;43.50;;;;;-3.33;94.87;99976.69;5013903;28;8925;-56
2021/03/20 02:08:18;;;;;;;;;71.50;48.00;;;;;-3.61;94.73;99967.06;5013677;28;8839;-58
2021/03/20 02:10:47;;;;;;;;;71.75;49.00;;;;;-3.36;94.90;99970.56;5011474;28;8843;-56
2021/03/20 02:13:25;;;;;;;;;86.25;56.50;;;;;-3.31;94.97;99966.19;5012457;28;8847;-56
2021/03/20 02:16:03;;;;;;;;;81.25;56.25;;;;;-3.20;94.16;99968.81;5011992;28;8850;-57
2021/03/20 02:18:56;;;;;;;;;69.00;51.50;;;;;-3.32;93.83;99965.31;5013048;28;8855;-57
2021/03/20 02:21:39;;;;;;;;;57.25;30.25;;;;;-3.37;93.95;99961.81;5011141;28;8831;-56
2021/03/20 02:24:54;;;;;;;;;74.00;49.25;;;;;-3.69;94.48;99961.81;5012819;28;8851;-55
2021/03/20 02:28:03;;;;;;;;;79.50;60.25;;;;;-3.81;94.71;99961.81;5027881;28;8839;-58
2021/03/20 02:30:44;;;;;;;;;75.25;54.75;;;;;-3.69;94.82;99968.81;5011152;28;8834;-57
2021/03/20 02:33:20;;;;;;;;;74.75;52.50;;;;;-3.50;95.26;99969.69;5026103;28;8843;-57
2021/03/20 02:36:14;;;;;;;;;68.50;53.50;;;;;-3.60;94.27;99966.19;5010878;28;8824;-57
2021/03/20 02:39:04;;;;;;;;;75.50;51.75;;;;;-3.33;93.72;99968.81;5005789;28;8843;-55
2021/03/20 02:41:55;;;;;;;;;73.50;50.00;;;;;-3.59;92.93;99967.94;5011342;28;8847;-57
2021/03/20 02:44:49;;;;;;;;;74.00;49.00;;;;;-3.89;93.48;99969.69;5010234;28;8958;-56
2021/03/20 02:47:31;;;;;;;;;75.75;55.00;;;;;-3.65;95.07;99967.94;5012691;28;8869;-57
2021/03/20 02:50:17;;;;;;;;;58.50;39.50;;;;;-3.75;93.84;99980.16;5012690;28;9619;-56
2021/03/20 02:53:09;;;;;;;;;84.25;55.00;;;;;-3.35;94.19;99980.19;5011418;28;8819;-58
2021/03/20 02:55:44;;;;;;;;;58.50;40.25;;;;;-3.51;93.55;99974.06;5011334;28;8874;-57
2021/03/20 02:58:35;;;;;;;;;73.25;52.25;;;;;-3.30;93.31;99983.69;5011354;28;8840;-57
2021/03/20 03:01:18;;;;;;;;;66.25;45.50;;;;;-3.57;93.50;99984.56;5009603;28;8930;-58
2021/03/20 03:03:48;;;;;;;;;72.75;51.50;;;;;-3.96;94.00;99991.50;5021385;28;8827;-58
2021/03/20 03:06:27;;;;;;;;;70.50;51.75;;;;;-3.91;92.63;99994.16;5012088;28;8876;-58
2021/03/20 03:09:13;;;;;;;;;63.75;43.00;;;;;-3.73;92.30;99998.56;5022008;28;8859;-57
2021/03/20 03:11:53;;;;;;;;;71.75;48.50;;;;;-4.26;92.00;99998.44;5011746;28;9620;-56
2021/03/20 03:14:56;;;;;;;;;54.50;37.25;;;;;-4.43;91.79;99997.47;5011769;28;8858;-57
2021/03/20 03:17:28;;;;;;;;;61.00;43.25;;;;;-4.36;91.77;99995.78;5009536;28;8851;-58
2021/03/20 03:20:08;;;;;;;;;56.25;40.75;;;;;-4.88;91.38;100002.50;5011976;28;8854;-56
2021/03/20 03:22:44;;;;;;;;;57.25;40.75;;;;;-4.59;92.24;99998.28;5012166;28;8855;-58
2021/03/20 03:25:15;;;;;;;;;70.75;52.25;;;;;-4.64;92.47;100000.88;5012561;28;8836;-57
2021/03/20 03:27:49;;;;;;;;;75.25;48.50;;;;;-4.41;92.59;100008.84;5011694;28;8918;-57
2021/03/20 03:30:20;;;;;;;;;69.25;50.00;;;;;-4.38;91.80;100007.97;5011985;28;8843;-57
2021/03/20 03:32:53;;;;;;;;;80.50;54.00;;;;;-4.17;91.56;100012.44;5011842;28;8850;-57
2021/03/20 03:36:00;;;;;;;;;78.75;52.50;;;;;-4.65;92.24;100005.25;5009865;28;8827;-58
2021/03/20 03:38:52;;;;;;;;;61.50;42.75;;;;;-4.63;92.96;100014.00;4991993;28;8881;-56
2021/03/20 03:41:31;;;;;;;;;62.25;49.00;;;;;-4.13;92.63;100022.03;5011416;28;8885;-54
2021/03/20 03:43:59;;;;;;;;;59.00;42.50;;;;;-4.22;93.68;100026.38;5008776;28;8831;-56
2021/03/20 03:46:35;;;;;;;;;71.25;51.75;;;;;-4.03;93.40;100031.69;5015371;28;8873;-57
2021/03/20 03:49:07;;;;;;;;;77.75;59.00;;;;;-3.83;93.14;100027.38;5011131;28;8827;-56
2021/03/20 03:51:35;;;;;;;;;81.50;61.25;;;;;-4.00;92.28;100027.34;5013210;28;9016;-56
2021/03/20 03:54:03;;;;;;;;;83.00;58.00;;;;;-3.85;93.29;100026.50;4999422;28;8843;-57
2021/03/20 03:57:07;;;;;;;;;84.25;58.50;;;;;-3.72;93.60;100026.53;5015210;28;8858;-58
2021/03/20 04:00:31;;;;;;;;;84.50;55.00;;;;;-3.44;93.02;100027.44;5013450;28;8885;-57
2021/03/20 04:03:38;;;;;;;;;76.25;56.00;;;;;-3.62;93.19;100038.78;5015115;28;8831;-57
2021/03/20 04:06:26;;;;;;;;;78.75;57.00;;;;;-3.71;93.11;100038.75;5009890;28;8835;-55
2021/03/20 04:09:21;;;;;;;;;80.25;58.00;;;;;-3.80;92.77;100035.25;5031118;28;8835;-57
2021/03/20 04:12:25;;;;;;;;;93.00;66.00;;;;;-3.62;93.08;100034.41;5013557;28;8839;-56
2021/03/20 04:15:11;;;;;;;;;85.25;57.50;;;;;-3.58;91.83;100036.19;5015172;28;8886;-56
2021/03/20 04:18:00;;;;;;;;;78.75;55.75;;;;;-3.97;92.10;100047.47;5014490;28;8854;-57
2021/03/20 04:21:07;;;;;;;;;71.75;54.00;;;;;-3.41;92.20;100049.31;5016129;28;8925;-56
2021/03/20 04:23:40;;;;;;;;;64.00;49.50;;;;;-4.16;92.22;100049.16;4991601;28;8857;-57
2021/03/20 04:26:21;;;;;;;;;66.00;48.25;;;;;-4.25;93.06;100047.34;5014071;28;8851;-54
2021/03/20 04:28:53;;;;;;;;;73.25;52.00;;;;;-4.46;92.73;100045.50;5014603;28;8835;-57
2021/03/20 04:31:52;;;;;;;;;125.00;90.75;;;;;-4.23;91.25;100050.84;5009711;28;8847;-56
2021/03/20 04:34:37;;;;;;;;;169.25;119.00;;;;;-4.13;91.70;100045.63;5008843;28;8953;-57
2021/03/20 04:37:15;;;;;;;;;99.50;70.00;;;;;-3.69;90.31;100040.50;5014771;28;8981;-56
2021/03/20 04:39:49;;;;;;;;;101.00;70.75;;;;;-3.99;89.89;100046.56;5014850;28;8820;-57
2021/03/20 04:42:25;;;;;;;;;77.25;57.00;;;;;-3.76;91.16;100049.25;5027016;28;8938;-57
2021/03/20 04:44:54;;;;;;;;;64.25;49.00;;;;;-3.42;90.03;100046.66;5013774;28;8835;-57
2021/03/20 04:47:26;;;;;;;;;56.50;37.00;;;;;-3.49;89.89;100050.19;5012860;28;8855;-56
2021/03/20 04:50:06;;;;;;;;;35.75;14.25;;;;;-3.57;90.75;100045.78;5014118;28;8843;-57
2021/03/20 04:52:44;;;;;;;;;66.50;44.50;;;;;-3.23;90.86;100055.44;4997223;28;8819;-56
2021/03/20 04:55:13;;;;;;;;;45.50;28.00;;;;;-3.70;92.60;100054.50;5014101;28;8839;-56
2021/03/20 04:57:57;;;;;;;;;50.00;38.75;;;;;-2.99;92.38;100057.19;5013447;28;8851;-57
2021/03/20 05:00:54;;;;;;;;;72.00;52.50;;;;;-2.99;90.70;100063.31;5008731;28;8815;-55
2021/03/20 05:03:33;;;;;;;;;46.50;30.75;;;;;-2.97;90.59;100061.56;5013772;28;8836;-58
2021/03/20 05:06:05;;;;;;;;;53.00;38.00;;;;;-2.97;90.50;100060.69;5012925;28;8838;-55
2021/03/20 05:08:38;;;;;;;;;56.00;42.50;;;;;-2.74;90.08;100066.81;5014335;28;8854;-57
2021/03/20 05:11:33;;;;;;;;;49.50;35.50;;;;;-3.15;90.77;100064.19;5014084;28;8865;-57
2021/03/20 05:14:40;;;;;;;;;63.00;45.00;;;;;-2.82;90.90;100065.03;5014139;28;8831;-57
2021/03/20 05:17:17;;;;;;;;;57.50;39.75;;;;;-2.66;89.42;100072.91;5029919;28;8962;-57
2021/03/20 05:19:45;;;;;;;;;84.25;60.50;;;;;-2.71;89.10;100064.16;5013771;28;8838;-55
2021/03/20 05:22:22;;;;;;;;;124.25;91.50;;;;;-2.35;89.01;100070.19;5014434;28;8846;-57
2021/03/20 05:24:51;;;;;;;;;140.25;103.50;;;;;-2.59;87.80;100075.53;5014441;28;8843;-56
2021/03/20 05:27:28;;;;;;;;;113.00;74.50;;;;;-2.75;88.37;100082.56;5013435;28;8913;-55
2021/03/20 05:29:55;;;;;;;;;91.00;62.75;;;;;-2.70;88.31;100080.81;5014278;28;8865;-56
2021/03/20 05:32:30;;;;;;;;;94.00;60.50;;;;;-2.53;88.24;100078.13;5013960;28;8858;-56
2021/03/20 05:35:00;;;;;;;;;61.25;45.25;;;;;-2.59;87.97;100079.03;5013899;28;8832;-56
2021/03/20 05:37:33;;;;;;;;;55.25;41.25;;;;;-2.73;87.78;100086.06;5006724;28;8823;-57
2021/03/20 05:40:00;;;;;;;;;62.00;41.00;;;;;-2.55;88.27;100086.03;5013865;28;8839;-57
2021/03/20 05:43:05;;;;;;;;;66.50;43.00;;;;;-2.29;88.23;100103.47;5011163;28;9599;-57
2021/03/20 05:45:43;;;;;;;;;75.00;54.50;;;;;-1.71;86.72;100092.75;5006633;28;8985;-57
2021/03/20 05:49:09;;;;;;;;;77.00;54.25;;;;;-1.80;85.48;100092.78;5012991;28;8839;-57
2021/03/20 05:51:56;;;;;;;;;66.00;50.00;;;;;-2.11;86.87;100095.53;4937199;28;8886;-55
2021/03/20 05:54:50;;;;;;;;;65.25;44.00;;;;;-2.11;87.70;100098.16;5014202;28;8955;-57
2021/03/20 05:57:21;;;;;;;;;66.50;46.25;;;;;-1.93;87.23;100085.84;5012088;28;8823;-57
2021/03/20 06:00:03;;;;;;;;;71.00;47.00;;;;;-1.84;86.76;100091.06;5014593;28;8839;-58
2021/03/20 06:03:06;;;;;;;;;88.75;61.75;;;;;-0.48;82.99;100091.78;5013487;28;8846;-58
2021/03/20 06:05:52;;;;;;;;;85.00;60.00;;;;;0.48;78.82;100095.06;5012977;28;8964;-57
2021/03/20 06:08:42;;;;;;;;;80.00;57.00;;;;;2.01;71.88;100088.06;5013335;28;8869;-59
2021/03/20 06:11:46;;;;;;;;;63.50;48.50;;;;;3.20;67.08;100095.94;5015736;28;8863;-58
2021/03/20 06:14:47;;;;;;;;;57.00;46.75;;;;;2.92;68.26;100090.44;5010414;28;8819;-58
2021/03/20 06:17:57;;;;;;;;;58.50;46.75;;;;;4.71;62.40;100097.06;5013699;28;8933;-58
2021/03/20 06:20:44;;;;;;;;;79.75;57.25;;;;;3.95;63.48;100103.75;5012402;28;8906;-58
2021/03/20 06:23:41;;;;;;;;;78.50;58.75;;;;;5.02;60.83;100095.19;5012638;28;8869;-58
2021/03/20 06:26:16;;;;;;;;;72.50;55.75;;;;;3.53;64.33;100111.94;5009446;28;8847;-58
2021/03/20 06:28:56;;;;;;;;;66.00;49.25;;;;;1.49;71.93;100116.38;5005608;28;8954;-58
2021/03/20 06:31:40;;;;;;;;;74.00;52.50;;;;;-0.26;78.70;100121.47;5010453;28;9606;-59
2021/03/20 06:34:28;;;;;;;;;46.50;44.00;;;;;0.21;79.84;100133.25;5012596;28;8827;-58
2021/03/20 06:37:09;;;;;;;;;77.50;53.50;;;;;0.10;81.66;100136.00;5008580;28;9556;-57
2021/03/20 06:39:57;;;;;;;;;70.75;51.25;;;;;0.27;79.98;100130.53;5005636;28;9650;-57
2021/03/20 06:42:35;;;;;;;;;72.50;53.25;;;;;0.29;80.33;100138.44;5009130;28;8840;-57
2021/03/20 06:45:19;;;;;;;;;78.25;57.00;;;;;-0.09;82.41;100137.13;5012854;28;8843;-58
2021/03/20 06:47:51;;;;;;;;;79.50;60.50;;;;;0.21;82.59;100141.16;5012981;28;8895;-58
2021/03/20 06:50:31;;;;;;;;;67.00;52.50;;;;;0.43;81.30;100147.06;5012685;28;8925;-58
2021/03/20 06:53:03;;;;;;;;;66.25;46.25;;;;;0.71;79.45;100141.41;5011641;28;8839;-58
2021/03/20 06:55:44;;;;;;;;;51.50;42.00;;;;;0.86;80.22;100146.47;5013836;28;8851;-58
2021/03/20 06:58:36;;;;;;;;;60.00;49.00;;;;;0.86;79.32;100152.63;5006366;28;8838;-58
2021/03/20 07:01:52;;;;;;;;;59.00;43.50;;;;;1.06;79.50;100160.28;5010628;28;8859;-58
2021/03/20 07:04:44;;;;;;;;;62.75;45.50;;;;;1.04;79.98;100167.34;5012358;28;8918;-58
2021/03/20 07:08:05;;;;;;;;;68.50;48.75;;;;;0.93;79.90;100174.56;5021684;28;9593;-57
2021/03/20 07:10:51;;;;;;;;;60.25;42.50;;;;;1.42;78.16;100168.53;5000944;28;8871;-58
2021/03/20 07:13:24;;;;;;;;;62.00;40.50;;;;;0.88;79.87;100179.03;5014150;28;8934;-57
2021/03/20 07:16:17;;;;;;;;;55.25;41.75;;;;;2.36;76.11;100165.00;5017151;28;9620;-58
2021/03/20 07:18:58;;;;;;;;;53.00;42.25;;;;;7.07;59.41;100168.75;5016134;28;8827;-57
2021/03/20 07:21:35;;;;;;;;;55.00;38.25;;;;;6.09;58.19;100177.75;5000346;28;8857;-57
2021/03/20 07:24:05;;;;;;;;;44.00;37.00;;;;;7.18;57.06;100182.53;5017164;28;8803;-58
2021/03/20 07:26:55;;;;;;;;;45.50;40.00;;;;;2.89;70.35;100171.84;5010835;28;8831;-57
2021/03/20 07:29:40;;;;;;;;;48.25;38.75;;;;;2.44;72.52;100179.88;5015389;28;8862;-58
2021/03/20 07:32:11;;;;;;;;;48.75;39.50;;;;;2.63;71.25;100183.88;5015360;28;8836;-55
2021/03/20 07:34:38;;;;;;;;;52.00;39.00;;;;;2.07;72.88;100191.22;5016804;28;8835;-58
2021/03/20 07:37:19;;;;;;;;;58.75;47.25;;;;;2.44;71.47;100188.69;5016646;28;8836;-58
2021/03/20 07:39:59;;;;;;;;;46.75;36.00;;;;;2.77;72.49;100196.88;5010907;28;8827;-58
2021/03/20 07:42:46;;;;;;;;;44.00;33.00;;;;;2.80;67.82;100194.16;5012332;28;8941;-58
2021/03/20 07:45:19;;;;;;;;;43.50;32.50;;;;;3.16;66.96;100197.78;5013679;28;8835;-58
2021/03/20 07:47:55;;;;;;;;;47.75;37.00;;;;;2.82;67.48;100197.66;5025072;28;8853;-57
2021/03/20 07:50:32;;;;;;;;;45.00;35.50;;;;;3.39;68.33;100197.22;5015721;28;8831;-58
2021/03/20 07:53:10;;;;;;;;;50.50;38.00;;;;;3.52;66.78;100203.97;5015153;28;8819;-58
2021/03/20 07:56:21;;;;;;;;;37.00;28.00;;;;;2.94;64.91;100201.78;5015620;28;8831;-58
2021/03/20 07:58:51;;;;;;;;;44.00;34.75;;;;;3.59;64.22;100204.69;5005727;28;9450;-58
2021/03/20 08:01:21;;;;;;;;;40.25;32.25;;;;;3.39;64.47;100209.59;5015757;28;8877;-58
2021/03/20 08:04:18;;;;;;;;;67.75;50.75;;;;;3.66;64.14;100205.41;5015885;28;9532;-58
2021/03/20 08:06:49;;;;;;;;;51.25;34.75;;;;;3.56;64.40;100218.06;5002808;28;8863;-58
2021/03/20 08:09:25;;;;;;;;;43.25;34.25;;;;;3.33;63.02;100209.75;5015663;28;8851;-59
2021/03/20 08:11:57;;;;;;;;;39.25;31.75;;;;;3.69;64.20;100206.22;5015759;28;9659;-59
2021/03/20 08:14:41;;;;;;;;;42.50;28.50;;;;;4.14;63.74;100218.34;5015817;28;8823;-59
2021/03/20 08:17:15;;;;;;;;;42.00;34.75;;;;;4.22;61.09;100220.81;5014519;28;8941;-59
2021/03/20 08:19:44;;;;;;;;;38.50;29.00;;;;;3.74;61.45;100214.06;5016128;28;8913;-59
2021/03/20 08:22:53;;;;;;;;;40.50;32.75;;;;;3.62;60.21;100215.22;5014977;28;8828;-60
2021/03/20 08:25:50;;;;;;;;;42.50;28.75;;;;;4.39;61.93;100216.75;5015317;28;8855;-58
2021/03/20 08:28:35;;;;;;;;;34.00;29.50;;;;;4.37;60.24;100212.38;5015238;28;8851;-60
2021/03/20 08:31:20;;;;;;;;;37.00;25.75;;;;;4.06;60.20;100217.69;5014933;28;8827;-59
2021/03/20 08:34:26;;;;;;;;;36.75;32.00;;;;;4.27;61.00;100217.09;5009921;28;8827;-60
2021/03/20 08:37:30;;;;;;;;;31.50;22.75;;;;;4.37;59.77;100221.25;5025934;28;8865;-59
2021/03/20 08:40:55;;;;;;;;;37.25;32.00;;;;;5.33;60.61;100219.31;5012951;28;8827;-57
2021/03/20 08:44:05;;;;;;;;;34.50;30.75;;;;;4.88;59.62;100226.91;4974013;28;8882;-59
2021/03/20 08:46:50;;;;;;;;;46.00;37.00;;;;;4.40;60.27;100226.50;5015040;28;8850;-59
2021/03/20 08:49:48;;;;;;;;;39.75;30.25;;;;;5.71;62.02;100226.09;5012710;28;8869;-58
2021/03/20 08:52:20;;;;;;;;;45.50;37.50;;;;;5.07;57.55;100226.31;5022980;28;11057;-57
2021/03/20 08:55:28;;;;;;;;;31.75;26.00;;;;;5.16;58.05;100224.28;5015431;28;8870;-58
2021/03/20 08:58:04;;;;;;;;;34.50;29.00;;;;;4.77;58.71;100224.56;5006262;28;9528;-57
2021/03/20 09:00:56;;;;;;;;;34.50;27.00;;;;;5.01;56.91;100229.16;5012636;28;8832;-58
2021/03/20 09:03:50;;;;;;;;;32.00;25.75;;;;;4.55;56.83;100230.47;5026613;28;8827;-58
2021/03/20 09:06:39;;;;;;;;;30.25;23.25;;;;;3.78;57.94;100236.09;5016805;28;8827;-58
2021/03/20 09:09:33;;;;;;;;;34.00;26.50;;;;;3.52;58.31;100235.81;5009595;28;8876;-59
2021/03/20 09:12:34;;;;;;;;;36.50;28.25;;;;;3.21;59.08;100243.66;5012588;28;9619;-58
2021/03/20 09:15:07;;;;;;;;;28.50;22.25;;;;;3.79;58.70;100245.81;5013522;28;8859;-58
2021/03/20 09:17:39;;;;;;;;;36.00;23.75;;;;;3.59;57.86;100249.84;5012531;28;8840;-58
2021/03/20 09:20:44;;;;;;;;;28.75;18.50;;;;;3.99;58.41;100248.84;5014333;28;8866;-58
2021/03/20 09:23:32;;;;;;;;;39.25;27.00;;;;;4.01;58.01;100249.69;5014198;28;8835;-58
2021/03/20 09:26:04;;;;;;;;;28.50;25.00;;;;;4.30;57.19;100246.25;5013641;28;8851;-59
2021/03/20 09:28:52;;;;;;;;;34.75;27.00;;;;;5.39;57.04;100251.06;4997264;28;8843;-59
2021/03/20 09:31:32;;;;;;;;;39.00;27.75;;;;;4.32;55.48;100243.56;5007641;28;8842;-57
2021/03/20 09:34:38;;;;;;;;;29.25;22.00;;;;;5.19;54.86;100250.84;5012186;28;8819;-59
2021/03/20 09:37:17;;;;;;;;;40.25;26.25;;;;;6.14;56.69;100242.44;5013828;28;8831;-60
2021/03/20 09:39:51;;;;;;;;;33.67;23.67;;;;;5.49;56.31;100252.53;5014885;28;8831;-59
2021/03/20 09:42:36;;;;;;;;;34.67;25.00;;;;;4.62;57.00;100258.66;5007993;28;9596;-59
2021/03/20 09:45:28;;;;;;;;;28.00;23.50;;;;;4.21;55.50;100249.16;5012871;28;8819;-61
2021/03/20 09:47:57;;;;;;;;;36.00;27.00;;;;;3.94;57.32;100248.09;5014338;28;8843;-59
2021/03/20 09:50:29;;;;;;;;;20.75;17.25;;;;;4.14;56.55;100256.41;5006034;28;8871;-60
2021/03/20 09:53:08;;;;;;;;;31.00;23.75;;;;;4.07;56.12;100249.50;5014638;28;8854;-60
2021/03/20 09:55:42;;;;;;;;;31.25;26.25;;;;;4.48;56.64;100255.53;5009433;28;8853;-59
2021/03/20 09:58:18;;;;;;;;;28.00;22.50;;;;;4.45;54.53;100255.63;5014130;28;8929;-60
2021/03/20 10:01:04;;;;;;;;;33.75;28.25;;;;;4.52;54.29;100257.16;5014543;28;8839;-59
2021/03/20 10:03:39;;;;;;;;;35.75;30.00;;;;;5.65;52.43;100257.38;5008640;28;8980;-59
2021/03/20 10:06:38;;;;;;;;;32.00;24.75;;;;;4.54;53.85;100263.31;5013306;28;8823;-60
2021/03/20 10:09:08;;;;;;;;;33.50;26.00;;;;;4.32;52.92;100249.75;5026024;28;8873;-60
2021/03/20 10:11:37;;;;;;;;;35.50;27.00;;;;;4.54;52.93;100254.47;5014162;28;8819;-59
2021/03/20 10:14:35;;;;;;;;;25.50;21.75;;;;;4.51;51.83;100255.44;5013811;28;8815;-60
2021/03/20 10:17:06;;;;;;;;;43.25;32.00;;;;;4.73;51.81;100252.16;5008275;28;8858;-60
2021/03/20 10:19:53;;;;;;;;;35.25;26.00;;;;;4.64;52.07;100260.44;5013998;28;8863;-60
2021/03/20 10:22:32;;;;;;;;;32.75;27.75;;;;;4.65;52.93;100257.69;5012718;28;8847;-60
2021/03/20 10:25:04;;;;;;;;;48.75;38.00;;;;;5.18;53.63;100254.38;5013455;28;8858;-60
2021/03/20 10:27:39;;;;;;;;;35.50;29.50;;;;;4.84;54.07;100253.63;4995846;28;8823;-59
2021/03/20 10:30:14;;;;;;;;;39.00;29.50;;;;;4.51;52.89;100266.06;5012962;28;8831;-59
2021/03/20 10:32:54;;;;;;;;;42.75;35.50;;;;;4.35;53.12;100257.63;5013158;28;8890;-59
2021/03/20 10:35:21;;;;;;;;;45.25;35.50;;;;;4.34;51.75;100253.22;5012753;28;8823;-59
2021/03/20 10:37:48;;;;;;;;;37.75;28.75;;;;;4.38;52.32;100254.91;5013163;28;8832;-59
2021/03/20 10:40:24;;;;;;;;;37.25;29.50;;;;;4.55;52.42;100262.41;5012331;28;8831;-59
2021/03/20 10:42:59;;;;;;;;;42.75;36.00;;;;;4.91;52.82;100258.75;5011174;28;8839;-58
2021/03/20 10:45:42;;;;;;;;;72.25;53.25;;;;;4.91;51.57;100259.63;5011215;28;8823;-59
2021/03/20 10:48:25;;;;;;;;;50.00;33.50;;;;;4.75;50.57;100258.31;5012202;28;8843;-60
2021/03/20 10:51:06;;;;;;;;;66.00;52.25;;;;;5.11;50.67;100260.81;5004910;28;8827;-59
2021/03/20 10:53:47;;;;;;;;;48.75;34.00;;;;;5.17;51.78;100250.88;5013411;28;8850;-60
2021/03/20 10:56:32;;;;;;;;;29.25;25.75;;;;;5.23;52.40;100255.13;5013271;28;9556;-58
2021/03/20 10:59:11;;;;;;;;;39.75;33.75;;;;;5.00;53.83;100247.81;5012835;28;8843;-58
2021/03/20 11:01:38;;;;;;;;;39.00;29.75;;;;;5.00;53.71;100255.81;5011610;28;8842;-58
2021/03/20 11:04:05;;;;;;;;;49.00;39.50;;;;;4.71;53.59;100251.34;5011949;28;8893;-59
2021/03/20 11:06:32;;;;;;;;;40.75;36.25;;;;;4.57;53.73;100255.25;5012380;28;8865;-59
2021/03/20 11:09:21;;;;;;;;;38.75;31.75;;;;;4.39;53.85;100250.44;5013176;28;8859;-58
2021/03/20 11:11:49;;;;;;;;;37.00;32.00;;;;;4.52;53.58;100246.53;5009231;28;8846;-59
2021/03/20 11:14:21;;;;;;;;;44.75;30.00;;;;;4.75;52.81;100250.34;5006357;28;8858;-56
2021/03/20 11:17:07;;;;;;;;;36.25;29.50;;;;;4.78;51.96;100247.59;4996806;28;8820;-59
2021/03/20 11:19:39;;;;;;;;;38.25;30.00;;;;;4.61;52.51;100251.59;5013260;28;8858;-58
2021/03/20 11:22:31;;;;;;;;;39.25;32.25;;;;;4.76;52.99;100249.41;5010699;28;8862;-59
2021/03/20 11:25:06;;;;;;;;;54.25;42.75;;;;;5.25;51.11;100242.66;5013080;28;8831;-60
2021/03/20 11:27:39;;;;;;;;;41.00;28.25;;;;;4.81;52.49;100236.84;5013474;28;8849;-58
2021/03/20 11:30:20;;;;;;;;;33.00;29.75;;;;;4.77;50.86;100237.88;5011929;28;8875;-59
2021/03/20 11:32:50;;;;;;;;;35.00;28.50;;;;;4.88;51.64;100233.09;4995997;28;8941;-59
2021/03/20 11:35:35;;;;;;;;;45.75;40.75;;;;;5.34;50.77;100230.81;5011810;28;8839;-58
2021/03/20 11:38:04;;;;;;;;;41.25;31.00;;;;;4.94;50.10;100229.38;5011777;28;8832;-59
2021/03/20 11:40:37;;;;;;;;;39.75;29.75;;;;;4.87;49.15;100226.06;5012417;28;8856;-60
2021/03/20 11:43:13;;;;;;;;;30.50;24.25;;;;;5.61;47.55;100223.75;5012231;28;8859;-59
2021/03/20 11:45:43;;;;;;;;;28.00;26.33;;;;;5.33;48.31;100223.78;5013408;28;8850;-60
2021/03/20 11:48:52;;;;;;;;;31.00;26.00;;;;;5.14;47.92;100219.03;5010276;28;8878;-61
2021/03/20 11:51:31;;;;;;;;;24.67;19.67;;;;;5.50;47.58;100217.00;5012383;28;8843;-59
2021/03/20 11:54:04;;;;;;;;;27.67;24.67;;;;;5.67;46.72;100207.56;4995733;28;8838;-60
2021/03/20 11:56:35;;;;;;;;;38.33;29.33;;;;;5.45;45.57;100213.59;5014325;28;8847;-60
2021/03/20 11:59:29;;;;;;;;;36.67;27.67;;;;;6.00;46.26;100197.59;5012117;28;8827;-60
2021/03/20 12:01:56;;;;;;;;;39.00;30.67;;;;;5.84;45.41;100197.22;5015030;28;8961;-60
2021/03/20 12:04:29;;;;;;;;;20.33;16.33;;;;;6.06;43.15;100194.72;5008274;28;8839;-59
2021/03/20 12:07:29;;;;;;;;;41.00;31.33;;;;;6.12;41.17;100191.84;5014425;28;8866;-58
2021/03/20 12:10:13;;;;;;;;;28.00;21.00;;;;;6.71;41.86;100193.25;5011651;28;8850;-60
2021/03/20 12:12:51;;;;;;;;;28.33;23.00;;;;;6.69;43.68;100189.78;5008389;28;9566;-60
2021/03/20 12:15:35;;;;;;;;;25.67;22.67;;;;;6.35;43.58;100187.50;5013743;28;8847;-60
2021/03/20 12:18:13;;;;;;;;;26.67;21.67;;;;;6.22;42.56;100184.41;5014899;28;8939;-60
2021/03/20 12:20:43;;;;;;;;;38.33;28.33;;;;;6.82;42.98;100185.72;5008703;28;8847;-60
2021/03/20 12:23:17;;;;;;;;;35.33;26.33;;;;;6.05;42.52;100184.09;5015269;28;8929;-59
2021/03/20 12:25:59;;;;;;;;;39.00;32.33;;;;;6.62;45.92;100176.72;5014209;28;8827;-61
2021/03/20 12:28:39;;;;;;;;;42.33;25.67;;;;;6.21;43.00;100176.44;5014164;28;8831;-60